createdAt,value
2018-09-03T00:00:36.498Z,16.13
2018-09-03T00:03:04.934Z,18.60
2018-09-03T00:05:33.236Z,17.10
2018-09-03T00:08:01.353Z,18.47
2018-09-03T00:10:29.497Z,17.93
2018-09-03T00:12:57.633Z,17.50
2018-09-03T00:15:25.794Z,18.70
2018-09-03T00:17:53.751Z,17.70
2018-09-03T00:20:21.677Z,17.90
2018-09-03T00:22:49.845Z,17.93
2018-09-03T00:25:17.984Z,18.37
2018-09-03T00:27:46.152Z,19.10
2018-09-03T00:30:14.071Z,17.90
2018-09-03T00:32:47.691Z,19.60
2018-09-03T00:36:21.856Z,19.40
2018-09-03T00:38:55.334Z,17.70
2018-09-03T00:41:29.042Z,17.80
2018-09-03T00:44:02.694Z,18.00
2018-09-03T00:46:36.382Z,17.70
2018-09-03T00:49:04.573Z,16.60
2018-09-03T00:51:32.740Z,17.80
2018-09-03T00:54:00.921Z,17.27
2018-09-03T00:56:29.081Z,17.20
2018-09-03T00:58:57.238Z,17.57
2018-09-03T01:01:25.394Z,17.30
2018-09-03T01:03:53.879Z,18.00
2018-09-03T01:06:22.039Z,16.90
2018-09-03T01:08:50.194Z,19.20
2018-09-03T01:11:18.353Z,19.63
2018-09-03T01:13:46.266Z,19.20
2018-09-03T01:16:14.449Z,17.70
2018-09-03T01:18:44.521Z,17.77
2018-09-03T01:21:12.741Z,17.40
2018-09-03T01:23:40.902Z,18.30
2018-09-03T01:26:09.098Z,17.40
2018-09-03T01:28:37.269Z,17.97
2018-09-03T01:31:05.718Z,18.10
2018-09-03T01:33:33.988Z,17.27
2018-09-03T01:36:01.939Z,18.80
2018-09-03T01:38:30.170Z,18.33
2018-09-03T01:40:58.443Z,18.87
2018-09-03T01:43:26.745Z,20.10
2018-09-03T01:45:54.865Z,19.77
2018-09-03T01:48:23.025Z,18.90
2018-09-03T01:50:51.190Z,18.47
2018-09-03T01:53:19.342Z,19.53
2018-09-03T01:55:47.478Z,19.27
2018-09-03T01:58:15.417Z,19.53
2018-09-03T02:00:43.554Z,17.80
2018-09-03T02:03:11.736Z,21.20
2018-09-03T02:05:39.904Z,19.77
2018-09-03T02:08:08.042Z,18.93
2018-09-03T02:10:36.181Z,19.60
2018-09-03T02:13:04.345Z,19.13
2018-09-03T02:15:32.508Z,18.60
2018-09-03T02:18:00.677Z,18.70
2018-09-03T02:20:28.902Z,17.90
2018-09-03T02:22:57.085Z,19.10
2018-09-03T02:25:25.265Z,18.97
2018-09-03T02:27:53.193Z,17.57
2018-09-03T02:30:21.350Z,16.63
2018-09-03T02:32:49.525Z,18.40
2018-09-03T02:35:17.661Z,19.53
2018-09-03T02:37:45.811Z,19.63
2018-09-03T02:40:13.937Z,17.60
2018-09-03T02:42:42.106Z,18.00
2018-09-03T02:45:10.890Z,19.33
2018-09-03T02:47:39.421Z,19.37
2018-09-03T02:50:08.020Z,18.30
2018-09-03T02:52:36.565Z,18.40
2018-09-03T02:55:04.724Z,18.57
2018-09-03T02:57:33.249Z,17.47
2018-09-03T03:00:01.207Z,17.70
2018-09-03T03:02:29.344Z,17.97
2018-09-03T03:04:57.493Z,18.40
2018-09-03T03:07:25.650Z,18.10
2018-09-03T03:09:54.072Z,18.97
2018-09-03T03:12:22.283Z,18.17
2018-09-03T03:14:51.037Z,17.90
2018-09-03T03:17:19.604Z,18.63
2018-09-03T03:19:47.760Z,17.50
2018-09-03T03:22:15.898Z,16.60
2018-09-03T03:24:44.541Z,18.50
2018-09-03T03:27:12.822Z,18.27
2018-09-03T03:29:41.087Z,18.17
2018-09-03T03:32:09.217Z,18.40
2018-09-03T03:34:37.408Z,17.80
2018-09-03T03:37:05.622Z,16.53
2018-09-03T03:39:33.813Z,16.07
2018-09-03T03:42:01.966Z,16.67
2018-09-03T03:44:30.152Z,16.80
2018-09-03T03:46:58.322Z,18.27
2018-09-03T03:49:26.504Z,16.67
2018-09-03T03:51:54.716Z,18.00
2018-09-03T03:54:22.888Z,16.20
2018-09-03T03:56:51.033Z,18.10
2018-09-03T03:59:19.178Z,17.20
2018-09-03T04:01:47.757Z,17.20
2018-09-03T04:04:15.920Z,17.17
2018-09-03T04:06:44.072Z,16.60
2018-09-03T04:09:12.308Z,16.57
2018-09-03T04:11:41.263Z,17.27
2018-09-03T04:14:09.502Z,15.80
2018-09-03T04:16:37.697Z,17.93
2018-09-03T04:19:05.881Z,16.20
2018-09-03T04:21:34.050Z,16.50
2018-09-03T04:24:02.210Z,17.60
2018-09-03T04:26:30.389Z,17.30
2018-09-03T04:28:58.545Z,17.53
2018-09-03T04:31:26.728Z,17.20
2018-09-03T04:33:54.889Z,16.30
2018-09-03T04:36:23.053Z,16.30
2018-09-03T04:38:51.323Z,16.20
2018-09-03T04:41:19.357Z,17.17
2018-09-03T04:43:47.501Z,17.10
2018-09-03T04:46:15.732Z,16.80
2018-09-03T04:48:43.868Z,15.47
2018-09-03T04:51:12.017Z,14.80
2018-09-03T04:53:40.151Z,16.23
2018-09-03T04:56:08.277Z,17.57
2018-09-03T04:58:36.401Z,16.40
2018-09-03T05:01:04.573Z,15.63
2018-09-03T05:03:32.706Z,15.93
2018-09-03T05:06:00.876Z,15.30
2018-09-03T05:08:29.053Z,17.43
2018-09-03T05:10:57.189Z,16.17
2018-09-03T05:13:25.335Z,15.80
2018-09-03T05:15:53.469Z,16.97
2018-09-03T05:18:21.619Z,16.63
2018-09-03T05:20:49.769Z,15.93
2018-09-03T05:23:17.911Z,16.23
2018-09-03T05:25:46.058Z,16.10
2018-09-03T05:28:14.008Z,16.43
2018-09-03T05:30:42.169Z,17.17
2018-09-03T05:33:10.313Z,15.90
2018-09-03T05:35:38.478Z,16.20
2018-09-03T05:38:06.617Z,16.23
2018-09-03T05:40:34.756Z,15.70
2018-09-03T05:43:02.923Z,16.83
2018-09-03T05:45:31.072Z,16.27
2018-09-03T05:47:59.237Z,16.07
2018-09-03T05:50:27.511Z,17.77
2018-09-03T05:52:55.542Z,16.70
2018-09-03T05:55:23.682Z,18.20
2018-09-03T05:57:51.866Z,18.23
2018-09-03T06:00:20.146Z,17.70
2018-09-03T06:02:48.318Z,15.63
2018-09-03T06:05:16.473Z,17.40
2018-09-03T06:07:44.620Z,18.03
2018-09-03T06:10:12.758Z,17.23
2018-09-03T06:12:40.994Z,17.23
2018-09-03T06:15:09.119Z,18.63
2018-09-03T06:17:37.268Z,17.43
2018-09-03T06:20:05.398Z,16.53
2018-09-03T06:22:33.543Z,17.50
2018-09-03T06:25:01.690Z,18.67
2018-09-03T06:27:29.846Z,17.03
2018-09-03T06:29:57.978Z,17.53
2018-09-03T06:32:26.149Z,17.37
2018-09-03T06:34:54.290Z,17.27
2018-09-03T06:37:22.441Z,18.10
2018-09-03T06:39:50.593Z,19.07
2018-09-03T06:42:18.755Z,17.30
2018-09-03T06:44:46.915Z,16.90
2018-09-03T06:47:15.114Z,17.27
2018-09-03T06:49:43.310Z,16.57
2018-09-03T06:52:11.527Z,16.60
2018-09-03T06:54:39.691Z,17.27
2018-09-03T06:57:07.840Z,15.57
2018-09-03T06:59:36.057Z,14.97
2018-09-03T07:02:04.173Z,15.00
2018-09-03T07:04:32.321Z,13.70
2018-09-03T07:07:00.450Z,14.20
2018-09-03T07:09:28.603Z,13.67
2018-09-03T07:11:56.740Z,13.73
2018-09-03T07:14:24.908Z,15.17
2018-09-03T07:16:53.132Z,14.20
2018-09-03T07:19:21.354Z,15.37
2018-09-03T07:21:49.493Z,13.93
2018-09-03T07:24:17.654Z,15.27
2018-09-03T07:26:45.798Z,14.87
2018-09-03T07:29:13.965Z,15.10
2018-09-03T07:31:42.147Z,16.17
2018-09-03T07:34:10.313Z,13.97
2018-09-03T07:36:38.454Z,16.90
2018-09-03T07:39:07.214Z,16.20
2018-09-03T07:41:35.366Z,15.17
2018-09-03T07:44:03.371Z,16.13
2018-09-03T07:46:31.462Z,16.07
2018-09-03T07:48:59.383Z,15.90
2018-09-03T07:51:27.565Z,15.67
2018-09-03T07:53:55.820Z,15.27
2018-09-03T07:56:23.977Z,17.20
2018-09-03T07:58:52.170Z,16.47
2018-09-03T08:01:20.369Z,16.20
2018-09-03T08:03:48.463Z,15.73
2018-09-03T08:06:16.623Z,16.60
2018-09-03T08:08:44.778Z,15.60
2018-09-03T08:11:12.922Z,14.13
2018-09-03T08:13:42.149Z,15.03
2018-09-03T08:16:11.026Z,16.80
2018-09-03T08:18:39.812Z,16.37
2018-09-03T08:21:07.963Z,15.80
2018-09-03T08:23:36.122Z,16.77
2018-09-03T08:26:04.544Z,16.87
2018-09-03T08:28:32.715Z,17.17
2018-09-03T08:31:01.209Z,16.80
2018-09-03T08:33:29.341Z,17.10
2018-09-03T08:35:58.079Z,17.00
2018-09-03T08:38:26.225Z,17.50
2018-09-03T08:40:54.369Z,15.37
2018-09-03T08:43:22.539Z,15.57
2018-09-03T08:45:50.693Z,17.47
2018-09-03T08:48:18.837Z,16.73
2018-09-03T08:50:46.985Z,15.80
2018-09-03T08:53:15.122Z,16.87
2018-09-03T08:55:43.269Z,16.23
2018-09-03T08:58:11.400Z,17.03
2018-09-03T09:00:39.553Z,15.43
2018-09-03T09:04:10.694Z,16.67
2018-09-03T09:06:38.854Z,16.70
2018-09-03T09:09:07.333Z,15.93
2018-09-03T09:11:35.504Z,16.40
2018-09-03T09:14:04.089Z,16.43
2018-09-03T09:16:32.386Z,17.30
2018-09-03T09:19:00.538Z,18.53
2018-09-03T09:21:28.461Z,17.13
2018-09-03T09:23:56.611Z,17.20
2018-09-03T09:26:24.808Z,18.50
2018-09-03T09:28:52.948Z,16.90
2018-09-03T09:31:21.092Z,15.90
2018-09-03T09:33:49.229Z,15.93
2018-09-03T09:36:17.382Z,16.13
2018-09-03T09:38:45.521Z,18.97
2018-09-03T09:41:13.670Z,18.10
2018-09-03T09:43:41.810Z,17.50
2018-09-03T09:46:09.970Z,17.50
2018-09-03T09:48:38.158Z,16.37
2018-09-03T09:51:06.370Z,17.00
2018-09-03T09:53:34.506Z,17.40
2018-09-03T09:56:02.655Z,17.97
2018-09-03T09:58:30.882Z,16.80
2018-09-03T10:01:04.522Z,16.40
2018-09-03T10:03:33.126Z,17.63
2018-09-03T10:06:01.278Z,16.93
2018-09-03T10:08:29.451Z,16.40
2018-09-03T10:10:57.597Z,16.47
2018-09-03T10:13:25.830Z,15.60
2018-09-03T10:15:54.035Z,15.70
2018-09-03T10:18:22.181Z,17.77
2018-09-03T10:20:50.349Z,16.23
2018-09-03T10:23:18.569Z,16.50
2018-09-03T10:25:46.790Z,16.17
2018-09-03T10:28:14.949Z,16.60
2018-09-03T10:30:43.115Z,17.07
2018-09-03T10:33:11.286Z,17.37
2018-09-03T10:35:39.455Z,16.90
2018-09-03T10:38:07.694Z,16.00
2018-09-03T10:40:35.805Z,16.60
2018-09-03T10:43:03.963Z,16.17
2018-09-03T10:45:32.123Z,14.53
2018-09-03T10:48:00.310Z,14.67
2018-09-03T10:50:28.439Z,14.73
2018-09-03T10:52:56.586Z,15.67
2018-09-03T10:55:24.725Z,15.10
2018-09-03T10:57:52.891Z,13.97
2018-09-03T11:00:21.019Z,15.30
2018-09-03T11:02:48.949Z,14.60
2018-09-03T11:05:17.158Z,14.20
2018-09-03T11:07:45.221Z,14.10
2018-09-03T11:10:13.383Z,14.47
2018-09-03T11:12:41.534Z,14.00
2018-09-03T11:15:09.676Z,15.27
2018-09-03T11:17:37.823Z,13.87
2018-09-03T11:20:08.061Z,13.80
2018-09-03T11:22:36.178Z,13.80
2018-09-03T11:25:04.317Z,14.70
2018-09-03T11:27:32.462Z,14.47
2018-09-03T11:30:00.609Z,14.67
2018-09-03T11:32:28.754Z,13.97
2018-09-03T11:34:56.956Z,13.70
2018-09-03T11:37:25.050Z,14.83
2018-09-03T11:39:53.201Z,13.37
2018-09-03T11:42:21.342Z,13.27
2018-09-03T11:44:49.501Z,13.37
2018-09-03T11:47:17.629Z,13.50
2018-09-03T11:49:45.913Z,13.57
2018-09-03T11:52:14.056Z,14.20
2018-09-03T11:54:42.222Z,13.30
2018-09-03T11:57:10.442Z,13.70
2018-09-03T11:59:38.577Z,12.40
2018-09-03T12:02:06.825Z,12.37
2018-09-03T12:04:34.956Z,11.93
2018-09-03T12:07:03.115Z,12.10
2018-09-03T12:09:31.282Z,11.90
2018-09-03T12:11:59.444Z,12.63
2018-09-03T12:14:30.198Z,10.93
2018-09-03T12:16:58.684Z,11.33
2018-09-03T12:19:26.826Z,13.03
2018-09-03T12:21:54.966Z,12.53
2018-09-03T12:24:23.098Z,12.27
2018-09-03T12:26:51.237Z,16.43
2018-09-03T12:29:19.385Z,16.50
2018-09-03T12:31:47.515Z,16.07
2018-09-03T12:34:15.672Z,16.47
2018-09-03T12:36:43.846Z,17.40
2018-09-03T12:39:12.027Z,17.37
2018-09-03T12:41:40.193Z,17.80
2018-09-03T12:44:08.371Z,16.50
2018-09-03T12:46:36.536Z,17.47
2018-09-03T12:49:04.722Z,18.13
2018-09-03T12:51:32.909Z,16.20
2018-09-03T12:54:01.015Z,16.07
2018-09-03T12:56:29.158Z,17.33
2018-09-03T12:58:57.311Z,17.43
2018-09-03T13:01:25.536Z,17.33
2018-09-03T13:03:53.677Z,17.30
2018-09-03T13:06:21.810Z,15.60
2018-09-03T13:08:49.949Z,14.90
2018-09-03T13:11:18.117Z,16.00
2018-09-03T13:13:46.266Z,15.57
2018-09-03T13:16:14.424Z,16.80
2018-09-03T13:18:42.337Z,15.93
2018-09-03T13:21:10.549Z,14.87
2018-09-03T13:23:38.698Z,13.97
2018-09-03T13:26:06.891Z,14.20
2018-09-03T13:28:35.046Z,15.27
2018-09-03T13:31:03.261Z,14.37
2018-09-03T13:33:31.405Z,15.47
2018-09-03T13:35:59.666Z,15.23
2018-09-03T13:38:27.762Z,13.87
2018-09-03T13:40:55.931Z,14.13
2018-09-03T13:43:24.101Z,13.87
2018-09-03T13:45:52.256Z,13.43
2018-09-03T13:48:20.478Z,11.90
2018-09-03T13:50:48.573Z,13.00
2018-09-03T13:53:17.750Z,12.57
2018-09-03T13:55:45.943Z,12.37
2018-09-03T13:58:14.082Z,12.30
2018-09-03T14:00:42.235Z,12.23
2018-09-03T14:03:10.369Z,11.90
2018-09-03T14:05:38.292Z,14.13
2018-09-03T14:08:06.429Z,13.13
2018-09-03T14:10:34.597Z,11.70
2018-09-03T14:13:03.123Z,12.20
2018-09-03T14:15:31.234Z,13.20
2018-09-03T14:17:59.172Z,11.47
2018-09-03T14:20:27.333Z,10.97
2018-09-03T14:22:55.478Z,11.90
2018-09-03T14:25:23.639Z,10.43
2018-09-03T14:27:51.771Z,9.80
2018-09-03T14:30:19.917Z,9.93
2018-09-03T14:32:48.091Z,9.90
2018-09-03T14:35:16.225Z,10.60
2018-09-03T14:37:44.359Z,9.60
2018-09-03T14:40:12.490Z,10.27
2018-09-03T14:42:40.735Z,9.70
2018-09-03T14:45:08.894Z,9.60
2018-09-03T14:47:36.984Z,9.40
2018-09-03T14:50:05.704Z,9.40
2018-09-03T14:52:33.904Z,8.83
2018-09-03T14:55:02.044Z,9.80
2018-09-03T14:57:30.189Z,9.73
2018-09-03T14:59:58.335Z,9.87
2018-09-03T15:02:26.511Z,9.57
2018-09-03T15:04:54.637Z,8.93
2018-09-03T15:07:22.805Z,9.90
2018-09-03T15:09:50.957Z,9.13
2018-09-03T15:12:19.096Z,9.67
2018-09-03T15:14:47.277Z,9.83
2018-09-03T15:17:15.417Z,9.03
2018-09-03T15:19:43.569Z,8.90
2018-09-03T15:22:11.803Z,8.03
2018-09-03T15:24:40.002Z,9.00
2018-09-03T15:27:08.180Z,8.57
2018-09-03T15:29:36.439Z,8.43
2018-09-03T15:32:04.575Z,7.10
2018-09-03T15:34:32.815Z,7.40
2018-09-03T15:37:00.969Z,8.37
2018-09-03T15:39:29.094Z,8.03
2018-09-03T15:41:57.576Z,8.03
2018-09-03T15:44:25.720Z,7.80
2018-09-03T15:46:53.862Z,8.23
2018-09-03T15:49:21.998Z,8.70
2018-09-03T15:51:50.131Z,8.80
2018-09-03T15:54:18.346Z,8.40
2018-09-03T15:56:46.495Z,6.57
2018-09-03T15:59:24.245Z,7.40
2018-09-03T16:01:52.409Z,6.80
2018-09-03T16:04:20.553Z,7.00
2018-09-03T16:06:48.695Z,7.40
2018-09-03T16:09:16.996Z,7.23
2018-09-03T16:11:45.038Z,6.80
2018-09-03T16:14:13.201Z,8.33
2018-09-03T16:17:04.126Z,7.30
2018-09-03T16:19:32.262Z,6.90
2018-09-03T16:22:00.427Z,7.10
2018-09-03T16:24:28.592Z,6.80
2018-09-03T16:26:56.730Z,6.80
2018-09-03T16:29:24.893Z,7.17
2018-09-03T16:31:53.039Z,6.90
2018-09-03T16:34:21.239Z,7.47
2018-09-03T16:36:49.402Z,6.93
2018-09-03T16:39:17.585Z,7.13
2018-09-03T16:41:45.779Z,6.93
2018-09-03T16:44:13.921Z,6.90
2018-09-03T16:46:42.510Z,6.90
2018-09-03T16:49:11.257Z,7.83
2018-09-03T16:51:39.790Z,6.43
2018-09-03T16:54:07.942Z,6.80
2018-09-03T16:56:36.114Z,6.30
2018-09-03T16:59:04.279Z,6.73
2018-09-03T17:01:34.064Z,6.50
2018-09-03T17:04:01.982Z,6.30
2018-09-03T17:06:46.320Z,6.60
2018-09-03T17:09:14.521Z,5.83
2018-09-03T17:11:42.673Z,6.90
2018-09-03T17:14:10.821Z,6.63
2018-09-03T17:16:38.979Z,6.03
2018-09-03T17:19:07.595Z,7.40
2018-09-03T17:21:36.208Z,6.73
2018-09-03T17:24:04.360Z,7.83
2018-09-03T17:26:32.506Z,7.80
2018-09-03T17:29:00.670Z,8.53
2018-09-03T17:31:28.824Z,9.60
2018-09-03T17:33:56.980Z,10.90
2018-09-03T17:36:25.123Z,9.70
2018-09-03T17:38:53.304Z,8.97
2018-09-03T17:41:21.445Z,9.33
2018-09-03T17:43:49.603Z,8.40
2018-09-03T17:46:17.720Z,7.50
2018-09-03T17:48:45.857Z,8.00
2018-09-03T17:51:14.021Z,8.73
2018-09-03T17:53:41.936Z,8.57
2018-09-03T17:56:10.074Z,8.03
2018-09-03T17:58:38.229Z,8.23
2018-09-03T18:01:06.368Z,8.50
2018-09-03T18:03:34.505Z,7.10
2018-09-03T18:06:02.670Z,7.50
2018-09-03T18:08:30.814Z,8.50
2018-09-03T18:10:59.004Z,9.07
2018-09-03T18:13:27.109Z,8.40
2018-09-03T18:15:55.269Z,8.37
2018-09-03T18:18:23.225Z,8.83
2018-09-03T18:20:51.409Z,8.53
2018-09-03T18:23:19.551Z,8.63
2018-09-03T18:25:48.054Z,8.47
2018-09-03T18:28:16.118Z,8.77
2018-09-03T18:30:44.261Z,9.23
2018-09-03T18:33:12.509Z,8.57
2018-09-03T18:35:40.762Z,8.27
2018-09-03T18:38:09.115Z,9.10
2018-09-03T18:40:37.421Z,10.03
2018-09-03T18:43:05.697Z,8.50
2018-09-03T18:45:34.885Z,9.70
2018-09-03T18:48:03.020Z,9.00
2018-09-03T18:50:31.217Z,9.10
2018-09-03T18:52:59.488Z,8.37
2018-09-03T18:55:28.674Z,8.87
2018-09-03T18:57:56.804Z,11.03
2018-09-03T19:00:27.161Z,8.73
2018-09-03T19:02:55.592Z,9.73
2018-09-03T19:05:23.762Z,8.90
2018-09-03T19:07:51.908Z,9.90
2018-09-03T19:10:21.242Z,11.20
2018-09-03T19:12:50.090Z,10.33
2018-09-03T19:15:19.003Z,8.30
2018-09-03T19:17:47.280Z,10.23
2018-09-03T19:20:15.453Z,11.93
2018-09-03T19:22:43.601Z,12.30
2018-09-03T19:25:11.765Z,10.77
2018-09-03T19:27:41.336Z,11.30
2018-09-03T19:30:09.809Z,11.63
2018-09-03T19:32:37.985Z,12.00
2018-09-03T19:35:06.169Z,10.33
2018-09-03T19:37:34.413Z,9.13
2018-09-03T19:40:02.570Z,10.13
2018-09-03T19:42:30.753Z,10.30
2018-09-03T19:44:59.003Z,8.40
2018-09-03T19:47:27.172Z,10.20
2018-09-03T19:49:55.361Z,9.70
2018-09-03T19:52:23.554Z,9.30
2018-09-03T19:54:51.722Z,10.63
2018-09-03T19:57:19.965Z,10.53
2018-09-03T19:59:48.196Z,9.63
2018-09-03T20:02:16.170Z,11.47
2018-09-03T20:04:44.091Z,11.23
2018-09-03T20:07:12.289Z,11.50
2018-09-03T20:09:40.517Z,11.77
2018-09-03T20:12:08.942Z,11.00
2018-09-03T20:14:37.096Z,11.10
2018-09-03T20:17:05.655Z,11.30
2018-09-03T20:19:33.790Z,9.77
2018-09-03T20:22:02.109Z,9.90
2018-09-03T20:24:30.256Z,9.43
2018-09-03T20:26:58.415Z,9.00
2018-09-03T20:29:26.587Z,10.20
2018-09-03T20:31:54.509Z,9.63
2018-09-03T20:34:22.673Z,10.17
2018-09-03T20:36:50.830Z,9.77
2018-09-03T20:39:18.966Z,9.80
2018-09-03T20:41:47.278Z,10.73
2018-09-03T20:44:15.665Z,10.47
2018-09-03T20:46:43.788Z,10.60
2018-09-03T20:49:12.168Z,9.60
2018-09-03T20:51:40.376Z,9.27
2018-09-03T20:54:08.496Z,10.00
2018-09-03T20:56:36.637Z,9.67
2018-09-03T20:59:04.915Z,9.17
2018-09-03T21:01:33.194Z,11.80
2018-09-03T21:04:01.292Z,9.70
2018-09-03T21:06:29.469Z,10.13
2018-09-03T21:08:57.642Z,9.43
2018-09-03T21:11:25.900Z,9.60
2018-09-03T21:13:54.076Z,9.53
2018-09-03T21:16:22.220Z,9.93
2018-09-03T21:18:50.386Z,10.37
2018-09-03T21:21:18.507Z,9.67
2018-09-03T21:23:46.667Z,8.97
2018-09-03T21:26:14.807Z,9.00
2018-09-03T21:28:43.166Z,9.77
2018-09-03T21:31:11.219Z,10.00
2018-09-03T21:33:39.363Z,9.83
2018-09-03T21:36:07.556Z,10.97
2018-09-03T21:38:35.693Z,9.97
2018-09-03T21:41:03.914Z,9.00
2018-09-03T21:43:32.071Z,9.70
2018-09-03T21:46:00.244Z,10.07
2018-09-03T21:48:28.408Z,9.27
2018-09-03T21:50:56.554Z,9.07
2018-09-03T21:53:24.750Z,9.30
2018-09-03T21:55:52.896Z,10.03
2018-09-03T21:58:21.023Z,9.47
2018-09-03T22:00:49.410Z,9.77
2018-09-03T22:03:17.552Z,9.63
2018-09-03T22:05:45.730Z,9.77
2018-09-03T22:08:13.901Z,9.80
2018-09-03T22:10:42.066Z,8.87
2018-09-03T22:13:10.215Z,9.67
2018-09-03T22:15:39.641Z,10.97
2018-09-03T22:18:08.017Z,9.20
2018-09-03T22:20:36.430Z,9.63
2018-09-03T22:23:04.571Z,8.70
2018-09-03T22:25:32.716Z,9.37
2018-09-03T22:28:00.628Z,9.30
2018-09-03T22:30:28.787Z,9.47
2018-09-03T22:32:56.925Z,10.13
2018-09-03T22:35:25.218Z,9.80
2018-09-03T22:37:53.351Z,9.10
2018-09-03T22:40:21.498Z,8.73
2018-09-03T22:42:49.401Z,10.33
2018-09-03T22:45:17.575Z,8.60
2018-09-03T22:47:45.706Z,9.90
2018-09-03T22:50:13.833Z,9.67
2018-09-03T22:52:41.964Z,9.87
2018-09-03T22:55:10.109Z,8.77
2018-09-03T22:57:38.253Z,9.57
2018-09-03T23:00:06.451Z,9.77
2018-09-03T23:02:42.243Z,8.80
2018-09-03T23:05:10.696Z,9.53
2018-09-03T23:07:39.058Z,9.47
2018-09-03T23:10:07.269Z,8.63
2018-09-03T23:12:35.196Z,8.23
2018-09-03T23:15:03.373Z,9.70
2018-09-03T23:17:31.570Z,10.00
2018-09-03T23:19:59.697Z,8.63
2018-09-03T23:22:27.959Z,9.47
2018-09-03T23:24:56.234Z,9.13
2018-09-03T23:27:24.544Z,9.57
2018-09-03T23:29:52.680Z,9.07
2018-09-03T23:32:20.857Z,10.10
2018-09-03T23:34:48.983Z,9.30
2018-09-03T23:37:17.122Z,9.43
2018-09-03T23:39:45.242Z,9.60
2018-09-03T23:42:13.382Z,9.80
2018-09-03T23:44:41.516Z,10.00
2018-09-03T23:47:09.656Z,9.27
2018-09-03T23:49:37.791Z,9.33
2018-09-03T23:52:05.968Z,8.20
2018-09-03T23:54:34.109Z,9.87
2018-09-03T23:57:02.242Z,7.87
2018-09-03T23:59:30.382Z,9.67
